Ottawa Lake, MI (49267)

2:10 PM EST on February 14, 2016 (GMT -0500)
Acres & Marshall Area | | Change Station
CLOSE
Current Station
Personal Weather Station
Location: Sylvania, OH
Elevation: 651 ft
Nearby Weather Stations

Elev 651 ft 41.72 °N, 83.68 °W | Updated 4 seconds ago

Clear
Clear
20.6 °F
Feels Like 15 °F
N
4.0
Wind Variable Wind from South
Gusts 5.0 mph

Today
High -- | Low -- °F
--% Chance of Precip.
Yesterday
High -- | Low -- °F
Precip. -- in
Pressure 30.35 in
Visibility 10.0 miles
Clouds Clear
Windchill 15 °F
Dew Point 6 °F
Humidity 52%
Rainfall 0.00 in
Snow Depth Not available.
7:32 AM 6:06 PM
Waxing Crescent, 44% visible
METAR KDUH 141855Z AUTO 16007KT 10SM CLR M07/M15 A3035 RMK AO2 T10741155
Pressure 30.35 in
Visibility 10.0 miles
Clouds Clear
Windchill 15 °F
Dew Point 6 °F
Humidity 52%
Rainfall 0.00 in
Snow Depth Not available.
7:32 AM 6:06 PM
Waxing Crescent, 44% visible
METAR KDUH 141855Z AUTO 16007KT 10SM CLR M07/M15 A3035 RMK AO2 T10741155

10-Day Weather Forecast

Almanac

Astronomy

Feb. 14, 2016 Rise Set
Actual Time
Civil Twilight
Nautical Twilight
Astronomical Twilight
Moon
Length of Visible Light
Length of Day
Tomorrow will be .
, % of the Moon is Illuminated

Today's Extremes

State Highs State Lows

Community

WunderPhotos

Upload Photos

1,892,874 photos uploaded!

WunderBlog® & News

Nearby

Air Quality

  Air Quality AQ Index Pollutant
Not available.

Snow Depth

Station Depth Elevation

Earthquake Activity

City Distance Mag. Time & Date
Minimum magnitude displayed is 2.5.

Coastal Water Temperatures

Place Temperature

Stations

Nearby Weather Stations

Station Location Temp. Windchill Dew Point Humidity Wind Precip. Elev Updated Type
                   

Watches & Warnings

There are currently no watches in effect.